Time;durP1;ratioP1;P1;durP2;ratioP2;P2;SDS_P1;SDS_P2;PMS_P1;PMS_P2;Temp;Humidity;BMP_temperature;BMP_pressure;BME280_temperature;BME280_humidity;BME280_pressure;Samples;Min_cycle;Max_cycle;Signal;HPM_P1;HPM_P2
2023/06/13 00:01:18;;;;;;;6.70;3.10;;;22.90;48.70;;;;;;7604619;23;80597;-56
2023/06/13 00:04:23;;;;;;;5.07;3.42;;;22.90;48.80;;;;;;7605669;23;80726;-54
2023/06/13 00:07:24;;;;;;;4.43;3.38;;;22.90;48.70;;;;;;7605582;23;80288;-56
2023/06/13 00:10:25;;;;;;;7.05;3.72;;;22.90;48.80;;;;;;7605078;23;80464;-54
2023/06/13 00:13:26;;;;;;;5.47;3.25;;;22.90;48.70;;;;;;7606020;23;80489;-58
2023/06/13 00:16:26;;;;;;;5.18;2.92;;;22.90;48.80;;;;;;7604258;23;80563;-55
2023/06/13 00:19:28;;;;;;;5.82;3.35;;;22.90;48.80;;;;;;7605521;23;79887;-69
2023/06/13 00:22:29;;;;;;;9.70;3.50;;;22.90;48.80;;;;;;7604764;23;81648;-64
2023/06/13 00:25:29;;;;;;;4.50;3.00;;;22.90;48.80;;;;;;7605401;23;80761;-63
2023/06/13 00:28:30;;;;;;;4.22;3.03;;;22.90;48.80;;;;;;7604352;23;80454;-62
2023/06/13 00:31:31;;;;;;;5.20;2.80;;;22.90;48.80;;;;;;7577620;23;82894;-63
2023/06/13 00:34:31;;;;;;;7.45;3.15;;;22.90;48.70;;;;;;7578117;23;83735;-63
2023/06/13 00:37:34;;;;;;;7.40;3.30;;;22.90;48.80;;;;;;7604137;23;80500;-62
2023/06/13 00:40:34;;;;;;;5.88;3.33;;;22.80;48.60;;;;;;7578228;23;80614;-61
2023/06/13 00:43:35;;;;;;;4.47;3.10;;;22.80;48.60;;;;;;7578996;23;80403;-61
2023/06/13 00:46:35;;;;;;;4.88;3.35;;;22.80;48.50;;;;;;7577819;23;81764;-61
2023/06/13 00:49:37;;;;;;;7.38;3.30;;;22.80;48.60;;;;;;7575647;23;83508;-60
2023/06/13 00:52:39;;;;;;;4.65;3.28;;;22.80;48.50;;;;;;7577681;23;83054;-62
2023/06/13 00:55:39;;;;;;;4.90;3.30;;;22.80;48.60;;;;;;7578362;23;81683;-61
2023/06/13 00:58:41;;;;;;;4.55;2.95;;;22.80;48.60;;;;;;7603385;23;80212;-61
2023/06/13 01:01:42;;;;;;;6.00;3.03;;;22.80;48.60;;;;;;7579326;23;81775;-62
2023/06/13 01:04:42;;;;;;;6.43;3.33;;;22.80;48.60;;;;;;7605036;23;81154;-62
2023/06/13 01:07:45;;;;;;;6.57;3.55;;;22.80;48.60;;;;;;7604303;23;80368;-62
2023/06/13 01:10:46;;;;;;;4.93;3.25;;;22.70;48.50;;;;;;7578464;23;83996;-63
2023/06/13 01:13:50;;;;;;;8.20;3.22;;;22.80;48.50;;;;;;7605064;23;80468;-61
2023/06/13 01:16:50;;;;;;;5.80;3.53;;;22.80;48.50;;;;;;7578968;23;81367;-60
2023/06/13 01:19:53;;;;;;;6.53;3.25;;;22.70;48.50;;;;;;7578472;23;83197;-60
2023/06/13 01:22:57;;;;;;;5.03;3.28;;;22.70;48.50;;;;;;7604711;23;80577;-60
2023/06/13 01:25:59;;;;;;;5.85;3.05;;;22.70;48.50;;;;;;7605846;23;80351;-61
2023/06/13 01:28:59;;;;;;;6.30;3.17;;;22.70;48.50;;;;;;7578956;23;87882;-60
2023/06/13 01:32:01;;;;;;;5.40;3.25;;;22.80;48.60;;;;;;7605594;23;80669;-61
2023/06/13 01:35:02;;;;;;;5.63;3.25;;;22.70;48.50;;;;;;7578395;23;80592;-61
2023/06/13 01:38:03;;;;;;;4.72;2.97;;;22.70;48.60;;;;;;7603973;23;80079;-62
2023/06/13 01:41:03;;;;;;;5.43;2.83;;;22.70;48.60;;;;;;7578678;23;83325;-61
2023/06/13 01:44:04;;;;;;;7.32;3.20;;;22.70;48.70;;;;;;7579378;23;81350;-61
2023/06/13 01:47:07;;;;;;;5.03;3.13;;;22.70;48.60;;;;;;7577875;23;81479;-61
2023/06/13 01:50:07;;;;;;;5.60;2.90;;;22.70;48.50;;;;;;7605084;23;79964;-61
2023/06/13 01:53:08;;;;;;;6.38;3.15;;;22.70;48.50;;;;;;7603955;23;80211;-62
2023/06/13 01:56:09;;;;;;;4.32;2.90;;;22.70;48.60;;;;;;7577913;23;83047;-60
2023/06/13 01:59:11;;;;;;;5.18;3.13;;;22.70;48.60;;;;;;7578314;23;83094;-61
2023/06/13 02:02:12;;;;;;;3.42;2.50;;;22.70;48.60;;;;;;7579225;23;83620;-60
2023/06/13 02:05:12;;;;;;;6.57;2.88;;;22.70;48.50;;;;;;7604250;23;80358;-62
2023/06/13 02:08:13;;;;;;;5.28;3.22;;;22.70;48.50;;;;;;7600019;23;80572;-61
2023/06/13 02:11:13;;;;;;;6.60;3.10;;;22.70;48.60;;;;;;7577534;23;81774;-62
2023/06/13 02:14:14;;;;;;;5.95;2.70;;;22.70;48.60;;;;;;7553913;23;80668;-61
2023/06/13 02:17:15;;;;;;;5.95;3.10;;;22.60;48.50;;;;;;7578660;23;82493;-61
2023/06/13 02:20:15;;;;;;;10.70;3.28;;;22.70;48.60;;;;;;7577816;23;82296;-61
2023/06/13 02:23:16;;;;;;;6.45;3.05;;;22.70;48.60;;;;;;7604812;23;81296;-62
2023/06/13 02:26:19;;;;;;;7.25;3.20;;;22.60;48.40;;;;;;7605688;23;80253;-62
2023/06/13 02:29:21;;;;;;;7.40;3.10;;;22.60;48.50;;;;;;7606196;23;80427;-56
2023/06/13 02:32:24;;;;;;;9.30;3.45;;;22.60;48.50;;;;;;7606887;23;80775;-56
2023/06/13 02:35:26;;;;;;;8.73;3.50;;;22.60;48.50;;;;;;7604668;23;80704;-56
2023/06/13 02:38:27;;;;;;;6.00;3.25;;;22.60;48.60;;;;;;7606291;23;80218;-58
2023/06/13 02:41:27;;;;;;;6.60;2.75;;;22.60;48.50;;;;;;7605056;23;80835;-56
2023/06/13 02:44:28;;;;;;;4.45;3.28;;;22.60;48.60;;;;;;7605091;23;81302;-56
2023/06/13 02:47:29;;;;;;;5.43;2.78;;;22.60;48.60;;;;;;7578663;23;83003;-55
2023/06/13 02:50:30;;;;;;;5.43;3.33;;;22.60;48.70;;;;;;7579796;23;83187;-55
2023/06/13 02:53:31;;;;;;;4.68;3.20;;;22.60;48.60;;;;;;7606279;23;81712;-58
2023/06/13 02:56:31;;;;;;;8.07;2.83;;;22.50;48.50;;;;;;7555463;23;81771;-54
2023/06/13 02:59:32;;;;;;;7.90;2.92;;;22.50;48.60;;;;;;7578668;23;81635;-58
2023/06/13 03:02:32;;;;;;;5.40;3.22;;;22.50;48.50;;;;;;7578990;23;81495;-55
2023/06/13 03:05:36;;;;;;;4.28;2.55;;;22.50;48.60;;;;;;7577629;23;83138;-57
2023/06/13 03:08:36;;;;;;;10.32;3.05;;;22.50;48.60;;;;;;7580577;23;81325;-55
2023/06/13 03:11:37;;;;;;;5.38;3.17;;;22.50;48.40;;;;;;7578965;23;81888;-57
2023/06/13 03:14:38;;;;;;;4.05;2.67;;;22.50;48.40;;;;;;7606255;23;81294;-58
2023/06/13 03:17:38;;;;;;;6.50;3.38;;;22.50;48.30;;;;;;7579554;23;83312;-57
2023/06/13 03:20:47;;;;;;;11.00;3.28;;;22.50;48.20;;;;;;7580704;23;83267;-58
2023/06/13 03:23:49;;;;;;;7.53;3.15;;;22.50;48.20;;;;;;7578903;23;83387;-57
2023/06/13 03:26:50;;;;;;;5.97;3.13;;;22.40;48.10;;;;;;7579648;23;82978;-58
2023/06/13 03:29:51;;;;;;;8.35;3.45;;;22.40;48.10;;;;;;7579255;23;82699;-58
2023/06/13 03:32:54;;;;;;;5.53;3.03;;;22.40;48.10;;;;;;7605429;23;80314;-57
2023/06/13 03:35:56;;;;;;;7.20;4.22;;;22.40;48.10;;;;;;7578518;23;83336;-58
2023/06/13 03:38:58;;;;;;;5.75;3.00;;;22.40;48.10;;;;;;7578801;23;82957;-58
2023/06/13 03:42:00;;;;;;;8.40;3.70;;;22.40;48.10;;;;;;7579334;23;83414;-55
2023/06/13 03:45:01;;;;;;;5.32;3.15;;;22.40;48.10;;;;;;7580488;23;83199;-58
2023/06/13 03:48:01;;;;;;;4.65;3.33;;;22.40;48.20;;;;;;7605895;23;80273;-56
2023/06/13 03:51:02;;;;;;;7.07;3.40;;;22.30;48.50;;;;;;7579158;23;82293;-58
2023/06/13 03:54:02;;;;;;;5.30;3.30;;;22.40;48.80;;;;;;7577623;23;82172;-55
2023/06/13 03:57:03;;;;;;;5.10;2.85;;;22.40;49.20;;;;;;7579260;23;81966;-54
2023/06/13 04:00:10;;;;;;;5.63;3.13;;;22.40;49.10;;;;;;7579171;23;80608;-66
2023/06/13 04:03:14;;;;;;;4.18;2.60;;;22.50;49.20;;;;;;7605533;23;80187;-65
2023/06/13 04:06:15;;;;;;;4.32;2.72;;;22.50;49.50;;;;;;7605895;23;80247;-64
2023/06/13 04:09:16;;;;;;;6.72;3.17;;;22.50;49.30;;;;;;7604847;23;80789;-63
2023/06/13 05:35:51;;;;;;;5.15;2.80;;;22.90;50.70;;;;;;7623066;22;80954;-66
2023/06/13 05:38:51;;;;;;;7.65;3.40;;;22.90;50.50;;;;;;7554407;22;82127;-64
2023/06/13 05:41:52;;;;;;;6.78;3.85;;;22.70;50.00;;;;;;7639613;22;81811;-63
2023/06/13 05:44:52;;;;;;;6.85;3.72;;;22.60;49.90;;;;;;7640985;22;80613;-64
2023/06/13 05:47:53;;;;;;;8.73;3.60;;;22.50;49.90;;;;;;7641473;22;80950;-59
2023/06/13 05:50:53;;;;;;;8.20;3.35;;;22.40;50.20;;;;;;7641836;22;80269;-55
2023/06/13 05:53:54;;;;;;;11.10;4.25;;;22.30;50.10;;;;;;7642085;22;80353;-56
2023/06/13 05:56:54;;;;;;;6.47;3.72;;;22.20;50.10;;;;;;7641374;22;80405;-55
2023/06/13 05:59:55;;;;;;;4.35;3.05;;;22.20;50.10;;;;;;7641170;22;79858;-55
2023/06/13 06:02:55;;;;;;;7.38;3.90;;;22.10;50.20;;;;;;7641514;22;80838;-57
2023/06/13 06:05:56;;;;;;;7.65;4.30;;;22.20;50.40;;;;;;7641054;22;80305;-57
2023/06/13 06:08:56;;;;;;;6.85;4.15;;;22.20;50.40;;;;;;7642203;22;81412;-61
2023/06/13 06:11:57;;;;;;;4.95;3.50;;;22.20;50.30;;;;;;7613683;22;82090;-61
2023/06/13 06:14:58;;;;;;;6.78;3.85;;;22.10;50.40;;;;;;7639733;22;82241;-60
2023/06/13 06:17:58;;;;;;;5.75;3.60;;;22.20;50.60;;;;;;7640785;22;80555;-66
2023/06/13 06:21:00;;;;;;;7.72;3.72;;;22.20;50.40;;;;;;7641785;22;87540;-65
2023/06/13 06:24:01;;;;;;;6.85;3.83;;;22.30;50.70;;;;;;7641143;22;80968;-65
2023/06/13 06:27:01;;;;;;;5.63;3.47;;;22.30;50.70;;;;;;7616828;22;80425;-65
2023/06/13 06:30:02;;;;;;;3.95;3.05;;;22.40;50.70;;;;;;7653395;22;80241;-65
2023/06/13 06:33:02;;;;;;;6.80;3.63;;;22.40;50.60;;;;;;7662763;22;80356;-65
2023/06/13 06:36:03;;;;;;;8.45;3.53;;;22.50;50.60;;;;;;7666490;22;80344;-65
2023/06/13 06:39:04;;;;;;;3.17;2.85;;;22.50;50.60;;;;;;7663002;22;80134;-65
2023/06/13 06:42:05;;;;;;;4.15;3.00;;;22.50;50.60;;;;;;7639183;22;80964;-66
2023/06/13 06:45:16;;;;;;;4.63;2.80;;;22.50;50.50;;;;;;7614046;22;82045;-65
2023/06/13 06:48:16;;;;;;;8.73;3.10;;;22.60;50.50;;;;;;7640605;22;80651;-66
2023/06/13 06:51:17;;;;;;;6.05;3.03;;;22.70;50.50;;;;;;7641229;22;80299;-65
2023/06/13 06:54:17;;;;;;;4.25;2.85;;;22.70;50.50;;;;;;7640757;22;80559;-65
2023/06/13 06:57:18;;;;;;;7.30;2.95;;;22.70;50.50;;;;;;7640516;22;80027;-66
2023/06/13 07:00:19;;;;;;;5.30;2.80;;;22.70;50.30;;;;;;7639357;22;81007;-66
2023/06/13 07:03:20;;;;;;;4.82;2.92;;;22.70;50.00;;;;;;7641997;22;80391;-66
2023/06/13 07:06:21;;;;;;;5.65;2.42;;;22.70;50.00;;;;;;7641799;22;80482;-64
2023/06/13 07:09:21;;;;;;;3.63;2.45;;;22.70;49.70;;;;;;7643182;22;80194;-65
2023/06/13 07:12:22;;;;;;;3.72;2.80;;;22.80;49.60;;;;;;7640871;22;80702;-65
2023/06/13 07:15:23;;;;;;;4.03;2.30;;;22.70;49.60;;;;;;7641198;22;80391;-64
2023/06/13 07:18:23;;;;;;;4.53;2.58;;;22.80;49.70;;;;;;7641784;22;80797;-63
2023/06/13 07:21:24;;;;;;;6.47;2.30;;;22.80;49.80;;;;;;7642203;22;85161;-62
2023/06/13 07:24:24;;;;;;;7.45;2.78;;;22.80;49.70;;;;;;7618157;22;81422;-63
2023/06/13 07:27:25;;;;;;;4.10;1.90;;;22.80;49.50;;;;;;7623782;22;81546;-64
2023/06/13 07:30:25;;;;;;;6.05;1.88;;;22.80;49.60;;;;;;7640644;22;80588;-64
2023/06/13 07:33:26;;;;;;;5.15;2.22;;;22.90;49.50;;;;;;7639074;22;80678;-62
2023/06/13 07:36:27;;;;;;;3.08;1.98;;;22.90;49.50;;;;;;7640607;22;80415;-63
2023/06/13 07:39:27;;;;;;;1.67;1.52;;;23.00;49.30;;;;;;7641337;22;81717;-63
2023/06/13 07:42:28;;;;;;;2.17;1.30;;;23.00;49.30;;;;;;7644066;22;80309;-59
2023/06/13 07:45:28;;;;;;;5.68;1.95;;;23.00;49.30;;;;;;7614517;22;80265;-58
2023/06/13 07:48:29;;;;;;;3.90;1.60;;;23.00;49.10;;;;;;7643329;22;80870;-58
2023/06/13 07:51:29;;;;;;;2.60;1.73;;;22.90;48.70;;;;;;7640601;22;80603;-56
2023/06/13 07:54:30;;;;;;;4.13;1.80;;;22.90;48.80;;;;;;7642562;22;80389;-58
2023/06/13 07:57:31;;;;;;;2.20;1.63;;;23.00;48.80;;;;;;7641909;22;80517;-58
2023/06/13 08:00:31;;;;;;;2.40;1.80;;;23.00;48.50;;;;;;7641642;22;80819;-57
2023/06/13 08:03:32;;;;;;;1.63;1.52;;;23.00;48.50;;;;;;7642153;22;80738;-56
2023/06/13 08:06:32;;;;;;;4.75;1.83;;;23.00;48.40;;;;;;7638371;22;82866;-57
2023/06/13 08:09:33;;;;;;;3.63;1.60;;;23.00;48.20;;;;;;7613577;22;82060;-58
2023/06/13 08:12:33;;;;;;;1.27;1.17;;;22.90;48.00;;;;;;7613791;22;80532;-57
2023/06/13 08:15:35;;;;;;;6.80;1.40;;;22.90;48.00;;;;;;7614456;22;82770;-58
2023/06/13 08:18:36;;;;;;;2.55;1.30;;;23.00;48.00;;;;;;7641246;22;80509;-57
2023/06/13 08:21:37;;;;;;;1.60;1.33;;;23.00;48.10;;;;;;7640957;22;80721;-57
2023/06/13 08:24:38;;;;;;;1.75;1.27;;;23.00;47.90;;;;;;7640419;22;80848;-58
2023/06/13 08:27:43;;;;;;;1.50;1.40;;;23.00;47.90;;;;;;7641556;22;80204;-58
2023/06/13 08:30:45;;;;;;;4.45;1.38;;;23.00;47.90;;;;;;7641281;22;80520;-60
2023/06/13 08:33:46;;;;;;;2.90;1.25;;;23.00;48.00;;;;;;7642800;22;80766;-57
2023/06/13 08:36:46;;;;;;;2.50;1.90;;;23.00;48.00;;;;;;7641349;22;80830;-65
2023/06/13 08:39:47;;;;;;;5.03;1.50;;;23.00;47.90;;;;;;7642289;22;80280;-65
2023/06/13 08:42:48;;;;;;;1.45;1.30;;;23.00;48.10;;;;;;7642882;22;80837;-65
2023/06/13 08:45:48;;;;;;;1.67;1.33;;;23.00;48.00;;;;;;7642032;22;81521;-65
2023/06/13 08:48:49;;;;;;;3.45;1.48;;;23.00;47.90;;;;;;7643054;22;80367;-65
2023/06/13 08:51:49;;;;;;;3.15;1.48;;;23.00;47.70;;;;;;7642648;22;80768;-65
2023/06/13 08:54:50;;;;;;;2.05;1.58;;;23.00;47.70;;;;;;7644829;22;80475;-64
2023/06/13 08:57:52;;;;;;;2.10;1.42;;;23.00;47.50;;;;;;7643527;22;80710;-65
2023/06/13 09:00:53;;;;;;;1.48;1.38;;;22.90;47.40;;;;;;7607978;22;81337;-67
2023/06/13 09:03:53;;;;;;;4.55;1.50;;;22.90;47.40;;;;;;7640288;22;80222;-65
2023/06/13 09:06:54;;;;;;;2.45;1.60;;;23.00;47.30;;;;;;7642285;22;80974;-64
2023/06/13 09:09:54;;;;;;;3.47;1.35;;;22.90;47.20;;;;;;7633208;22;81257;-63
2023/06/13 09:12:55;;;;;;;2.97;1.45;;;23.00;47.30;;;;;;7637585;22;81391;-57
2023/06/13 09:15:55;;;;;;;1.42;1.33;;;22.90;47.20;;;;;;7640140;22;80079;-57
2023/06/13 09:18:56;;;;;;;3.67;1.55;;;23.00;47.30;;;;;;7641910;22;80489;-58
2023/06/13 09:21:56;;;;;;;1.88;1.25;;;23.00;47.30;;;;;;7640962;22;80415;-56
2023/06/13 09:24:57;;;;;;;3.55;1.52;;;22.90;47.20;;;;;;7641020;22;80498;-57
2023/06/13 09:27:57;;;;;;;1.75;1.52;;;22.90;47.30;;;;;;7640793;22;80020;-57
2023/06/13 09:30:58;;;;;;;3.80;1.38;;;22.90;47.00;;;;;;7640633;22;81571;-58
2023/06/13 09:33:58;;;;;;;3.60;1.60;;;22.80;47.30;;;;;;7640667;22;81252;-57
2023/06/13 09:36:59;;;;;;;3.45;1.40;;;22.80;47.30;;;;;;7639443;22;81307;-58
2023/06/13 09:39:59;;;;;;;2.20;1.98;;;22.90;47.40;;;;;;7630482;22;80483;-57
2023/06/13 09:43:02;;;;;;;4.57;1.30;;;22.90;47.30;;;;;;7640608;22;80490;-58
2023/06/13 09:46:03;;;;;;;4.35;1.40;;;22.90;47.20;;;;;;7640100;22;80488;-57
2023/06/13 09:49:04;;;;;;;2.28;1.40;;;22.90;47.00;;;;;;7640251;22;82866;-65
2023/06/13 09:52:05;;;;;;;2.72;1.42;;;23.00;47.20;;;;;;7623976;22;83303;-64
2023/06/13 09:55:07;;;;;;;1.42;1.20;;;23.00;47.10;;;;;;7639558;22;79957;-64
2023/06/13 09:58:07;;;;;;;1.45;1.35;;;23.00;47.10;;;;;;7639645;22;82026;-63
2023/06/13 10:01:15;;;;;;;11.32;1.50;;;23.00;46.80;;;;;;7651454;22;79902;-64
2023/06/13 10:04:15;;;;;;;1.35;1.20;;;23.00;46.90;;;;;;7657508;22;81107;-64
2023/06/13 10:07:17;;;;;;;2.10;1.60;;;23.10;46.80;;;;;;7623388;22;83441;-64
2023/06/13 10:10:17;;;;;;;2.00;1.60;;;23.10;46.50;;;;;;7642415;22;80904;-65
2023/06/13 10:13:18;;;;;;;2.20;1.58;;;23.10;46.60;;;;;;7643170;22;80286;-64
2023/06/13 10:16:18;;;;;;;1.10;1.00;;;23.10;46.30;;;;;;7639689;22;80131;-64
2023/06/13 10:19:19;;;;;;;1.60;1.50;;;23.10;46.20;;;;;;7642479;22;80783;-64
2023/06/13 10:22:20;;;;;;;2.63;1.65;;;23.10;46.10;;;;;;7640629;22;80203;-65
2023/06/13 10:25:21;;;;;;;1.95;1.45;;;23.20;46.30;;;;;;7641581;22;80282;-66
2023/06/13 10:28:21;;;;;;;1.80;1.20;;;23.20;46.20;;;;;;7639481;22;80336;-59
2023/06/13 10:31:26;;;;;;;2.33;1.30;;;23.20;46.10;;;;;;7641910;22;80186;-59
2023/06/13 10:34:26;;;;;;;1.67;1.58;;;23.20;46.10;;;;;;7641978;22;80711;-58
2023/06/13 10:37:27;;;;;;;1.25;1.10;;;23.20;45.90;;;;;;7640949;22;80180;-58
2023/06/13 10:40:28;;;;;;;2.72;1.27;;;23.20;45.80;;;;;;7641939;22;80683;-58
2023/06/13 10:43:29;;;;;;;1.40;1.30;;;23.20;45.90;;;;;;7643514;22;81531;-59
2023/06/13 10:46:29;;;;;;;1.35;1.20;;;23.30;45.60;;;;;;7643116;22;80650;-58
2023/06/13 10:49:30;;;;;;;2.17;1.48;;;23.30;45.80;;;;;;7643312;22;80566;-58
2023/06/13 10:52:30;;;;;;;1.50;1.40;;;23.20;45.80;;;;;;7642576;22;81632;-57
2023/06/13 10:55:32;;;;;;;1.25;1.10;;;23.30;45.80;;;;;;7642184;22;80262;-57
2023/06/13 10:58:33;;;;;;;2.88;1.42;;;23.30;45.80;;;;;;7643377;22;82071;-58
2023/06/13 11:01:34;;;;;;;2.15;1.35;;;23.30;46.00;;;;;;7643524;22;80724;-59
2023/06/13 11:04:34;;;;;;;3.45;1.70;;;23.30;45.80;;;;;;7643158;22;80245;-58
2023/06/13 11:07:36;;;;;;;1.98;1.40;;;23.30;45.70;;;;;;7641909;22;80407;-58
2023/06/13 11:10:37;;;;;;;3.45;1.45;;;23.30;45.90;;;;;;7642055;22;80334;-58
2023/06/13 11:13:38;;;;;;;3.60;1.27;;;23.30;45.80;;;;;;7642446;22;80105;-57
2023/06/13 11:16:38;;;;;;;2.83;1.50;;;23.40;46.20;;;;;;7643310;22;80167;-58
2023/06/13 11:19:39;;;;;;;1.27;1.20;;;23.40;46.00;;;;;;7643181;22;80278;-57
2023/06/13 11:22:39;;;;;;;5.18;2.20;;;23.40;45.90;;;;;;7643129;22;80545;-66
2023/06/13 11:25:40;;;;;;;4.80;2.17;;;23.50;46.10;;;;;;7643048;22;80465;-64
2023/06/13 11:28:40;;;;;;;3.72;2.25;;;23.50;46.10;;;;;;7643646;22;81036;-67
2023/06/13 11:31:41;;;;;;;8.55;1.83;;;23.50;46.10;;;;;;7644093;22;80646;-65
2023/06/13 11:34:42;;;;;;;4.75;2.45;;;23.50;46.10;;;;;;7642917;22;80736;-66
2023/06/13 11:37:44;;;;;;;3.22;2.05;;;23.60;46.00;;;;;;7642730;22;80689;-64
2023/06/13 11:40:46;;;;;;;7.10;2.10;;;23.60;45.50;;;;;;7643551;22;80994;-59
2023/06/13 11:43:47;;;;;;;2.53;2.00;;;23.60;45.60;;;;;;7641791;22;80394;-59
2023/06/13 11:46:48;;;;;;;3.63;1.90;;;23.60;46.00;;;;;;7643584;22;80672;-58
2023/06/13 11:49:48;;;;;;;4.57;2.10;;;23.60;45.70;;;;;;7641847;22;81152;-57
2023/06/13 11:52:49;;;;;;;4.93;1.58;;;23.60;45.60;;;;;;7642432;22;87211;-58
2023/06/13 11:55:50;;;;;;;3.65;1.67;;;23.60;45.60;;;;;;7643236;22;80786;-57
2023/06/13 11:58:50;;;;;;;5.50;1.75;;;23.60;45.40;;;;;;7641849;22;80463;-58
2023/06/13 12:01:54;;;;;;;3.00;1.50;;;23.60;45.40;;;;;;7642717;22;80325;-57
2023/06/13 12:04:54;;;;;;;4.45;2.03;;;23.60;45.60;;;;;;7642877;22;80738;-57
2023/06/13 12:07:55;;;;;;;2.10;1.63;;;23.60;45.60;;;;;;7643239;22;80215;-57
2023/06/13 12:10:56;;;;;;;2.67;1.90;;;23.50;45.40;;;;;;7642725;22;80460;-59
2023/06/13 12:13:57;;;;;;;2.78;1.60;;;23.50;45.50;;;;;;7615383;22;80759;-57
2023/06/13 12:16:59;;;;;;;4.25;1.77;;;23.60;45.10;;;;;;7642558;22;80338;-58
2023/06/13 12:19:59;;;;;;;3.47;2.00;;;23.60;45.10;;;;;;7642454;22;83301;-58
2023/06/13 12:23:00;;;;;;;3.05;1.50;;;23.50;45.20;;;;;;7641326;22;80069;-58
2023/06/13 12:26:00;;;;;;;2.22;1.90;;;23.60;45.20;;;;;;7642936;22;80883;-58
2023/06/13 12:29:06;;;;;;;1.77;1.50;;;23.60;45.20;;;;;;7642447;22;80685;-59
2023/06/13 12:32:07;;;;;;;2.20;1.50;;;23.60;45.30;;;;;;7642843;22;81111;-57
2023/06/13 12:35:07;;;;;;;1.65;1.30;;;23.50;45.30;;;;;;7628113;22;80229;-58
2023/06/13 12:38:08;;;;;;;4.35;1.60;;;23.50;45.20;;;;;;7627458;22;80562;-58
2023/06/13 12:41:09;;;;;;;1.73;1.42;;;23.60;46.10;;;;;;7606317;22;80477;-58
2023/06/13 12:44:10;;;;;;;2.13;1.35;;;23.50;45.50;;;;;;7605585;23;80866;-58
2023/06/13 12:47:11;;;;;;;1.45;1.23;;;23.60;45.60;;;;;;7605875;23;80156;-57
2023/06/13 12:50:11;;;;;;;1.65;1.10;;;23.60;45.60;;;;;;7606217;23;80741;-58
2023/06/13 12:53:12;;;;;;;1.88;1.20;;;23.50;45.60;;;;;;7606544;23;80118;-59
2023/06/13 12:56:13;;;;;;;4.53;1.25;;;23.50;45.50;;;;;;7605572;23;80436;-58
2023/06/13 12:59:13;;;;;;;1.30;1.20;;;23.50;45.40;;;;;;7604017;23;80201;-58
2023/06/13 13:02:14;;;;;;;1.95;1.25;;;23.50;45.60;;;;;;7573354;22;82902;-58
2023/06/13 13:05:15;;;;;;;1.23;1.13;;;23.50;45.40;;;;;;7595527;22;80692;-58
2023/06/13 13:08:15;;;;;;;1.42;1.20;;;23.50;45.30;;;;;;7604795;23;80200;-59
2023/06/13 13:11:16;;;;;;;1.27;1.17;;;23.50;45.30;;;;;;7605458;23;80387;-61
2023/06/13 13:14:16;;;;;;;1.77;1.15;;;23.50;45.30;;;;;;7604324;23;81199;-65
2023/06/13 13:17:17;;;;;;;1.92;1.27;;;23.50;45.30;;;;;;7604468;23;80659;-69
2023/06/13 13:20:17;;;;;;;10.23;1.58;;;23.50;45.70;;;;;;7604784;23;80549;-66
2023/06/13 13:23:18;;;;;;;4.65;1.55;;;23.50;45.70;;;;;;7605474;23;80167;-65
2023/06/13 13:26:18;;;;;;;4.93;1.38;;;23.60;45.90;;;;;;7605373;23;80393;-67
2023/06/13 13:29:19;;;;;;;7.72;2.03;;;23.60;46.70;;;;;;7605812;23;86686;-65
2023/06/13 13:32:19;;;;;;;14.23;1.83;;;23.60;46.30;;;;;;7605352;23;80399;-56
2023/06/13 13:35:20;;;;;;;6.30;2.42;;;23.70;46.60;;;;;;7598871;23;80521;-58
2023/06/13 13:38:20;;;;;;;94.72;40.63;;;23.70;48.10;;;;;;7636192;22;80432;-58
2023/06/13 13:41:21;;;;;;;233.48;114.78;;;23.70;48.30;;;;;;7642312;22;83824;-58
2023/06/13 13:44:22;;;;;;;238.68;116.85;;;23.80;48.80;;;;;;7637126;22;85444;-53
2023/06/13 13:47:22;;;;;;;204.77;96.82;;;23.80;49.40;;;;;;7632788;22;85093;-57
2023/06/13 13:50:23;;;;;;;179.60;87.43;;;23.80;48.80;;;;;;7639703;22;85335;-56
2023/06/13 13:53:23;;;;;;;162.55;82.78;;;23.80;49.00;;;;;;7640294;22;82946;-56
2023/06/13 13:56:24;;;;;;;149.43;70.40;;;23.80;49.10;;;;;;7640601;22;83795;-55
2023/06/13 13:59:24;;;;;;;96.88;44.80;;;23.80;49.00;;;;;;7637369;22;83610;-56
2023/06/13 14:02:25;;;;;;;83.00;36.75;;;23.80;48.10;;;;;;7632524;22;83353;-55
2023/06/13 14:05:25;;;;;;;66.88;31.25;;;23.80;48.00;;;;;;7638090;22;82732;-53
2023/06/13 14:08:26;;;;;;;54.33;26.65;;;23.80;47.70;;;;;;7638614;22;83144;-61
2023/06/13 14:11:27;;;;;;;45.38;21.10;;;23.80;47.30;;;;;;7636515;22;83844;-60
2023/06/13 14:14:27;;;;;;;36.53;18.77;;;23.80;46.70;;;;;;7637024;22;82931;-60
2023/06/13 14:17:28;;;;;;;28.05;15.70;;;23.80;47.00;;;;;;7638200;22;83230;-60
2023/06/13 14:20:29;;;;;;;22.98;10.45;;;23.80;47.10;;;;;;7637897;22;84066;-60
2023/06/13 14:23:30;;;;;;;41.92;12.90;;;23.80;46.80;;;;;;7603788;22;84131;-57
2023/06/13 14:26:31;;;;;;;19.60;9.98;;;23.80;47.20;;;;;;7641314;22;83009;-58
2023/06/13 14:29:32;;;;;;;14.75;7.70;;;23.80;47.40;;;;;;7641547;22;83135;-59
2023/06/13 14:32:32;;;;;;;15.57;7.07;;;23.80;47.30;;;;;;7643653;22;82932;-58
2023/06/13 14:35:33;;;;;;;14.73;7.43;;;23.70;46.90;;;;;;7641021;22;81074;-57
2023/06/13 14:38:38;;;;;;;13.07;6.25;;;23.70;47.00;;;;;;7645250;22;80227;-55
2023/06/13 14:41:39;;;;;;;11.90;5.03;;;23.80;46.80;;;;;;7618533;22;87232;-57
2023/06/13 14:44:41;;;;;;;9.27;4.95;;;23.80;46.80;;;;;;7646039;22;80311;-54
2023/06/13 14:47:42;;;;;;;8.38;4.00;;;23.80;46.80;;;;;;7645549;22;80190;-54
2023/06/13 14:50:42;;;;;;;5.60;3.30;;;23.70;46.50;;;;;;7613139;22;80296;-54
2023/06/13 14:53:43;;;;;;;5.78;3.35;;;23.80;46.90;;;;;;7641136;22;80223;-53
2023/06/13 14:56:43;;;;;;;8.15;3.55;;;23.70;47.00;;;;;;7640877;22;80660;-55
2023/06/13 14:59:44;;;;;;;8.27;3.83;;;23.80;47.30;;;;;;7643046;22;81419;-58
2023/06/13 15:02:44;;;;;;;7.78;2.92;;;23.80;47.60;;;;;;7614818;22;81885;-53
2023/06/13 15:05:45;;;;;;;9.38;3.53;;;23.80;48.20;;;;;;7638881;22;80912;-52
2023/06/13 15:08:46;;;;;;;8.85;3.30;;;23.90;47.60;;;;;;7640738;22;80331;-57
2023/06/13 15:11:46;;;;;;;12.75;3.85;;;23.90;47.70;;;;;;7641209;22;80358;-58
2023/06/13 15:14:47;;;;;;;11.00;3.35;;;23.90;47.80;;;;;;7642378;22;80260;-57
2023/06/13 15:17:47;;;;;;;12.52;3.08;;;23.90;47.70;;;;;;7642743;22;80216;-56
2023/06/13 15:20:48;;;;;;;7.80;3.35;;;23.90;47.80;;;;;;7643309;22;80247;-59
2023/06/13 15:23:49;;;;;;;7.68;2.72;;;23.90;48.00;;;;;;7643644;22;82069;-59
2023/06/13 15:26:49;;;;;;;5.70;2.92;;;23.90;47.60;;;;;;7643699;22;80462;-57
2023/06/13 15:29:50;;;;;;;13.05;2.92;;;23.90;47.60;;;;;;7643554;22;80321;-58
2023/06/13 15:32:51;;;;;;;16.77;3.58;;;23.90;47.60;;;;;;7643674;22;80494;-59
2023/06/13 15:35:51;;;;;;;8.93;3.15;;;23.80;47.70;;;;;;7636733;22;80732;-57
2023/06/13 15:38:53;;;;;;;6.65;3.03;;;23.90;47.90;;;;;;7638282;22;81247;-55
2023/06/13 15:41:54;;;;;;;5.38;2.65;;;23.80;48.00;;;;;;7639829;22;80271;-56
2023/06/13 15:44:54;;;;;;;6.78;2.50;;;23.80;48.20;;;;;;7640235;22;81071;-57
2023/06/13 15:47:55;;;;;;;10.25;2.83;;;23.80;48.30;;;;;;7639951;22;81574;-59
2023/06/13 15:50:56;;;;;;;4.25;2.35;;;23.80;48.30;;;;;;7642043;22;80509;-58
2023/06/13 15:53:56;;;;;;;7.95;2.58;;;23.80;48.40;;;;;;7642968;22;80805;-58
2023/06/13 15:56:57;;;;;;;5.63;2.83;;;23.80;48.40;;;;;;7642724;22;80745;-57
2023/06/13 15:59:57;;;;;;;4.47;2.50;;;23.80;48.50;;;;;;7641572;22;81380;-58
2023/06/13 16:02:58;;;;;;;4.45;2.33;;;23.80;48.50;;;;;;7642138;22;80722;-58
2023/06/13 16:05:58;;;;;;;3.85;2.20;;;23.80;48.40;;;;;;7643052;22;80804;-59
2023/06/13 16:08:59;;;;;;;7.60;2.90;;;23.70;48.40;;;;;;7643003;22;85686;-57
2023/06/13 16:11:59;;;;;;;2.90;2.00;;;23.70;48.50;;;;;;7641819;22;80815;-60
2023/06/13 16:15:00;;;;;;;7.68;2.20;;;23.80;48.50;;;;;;7644585;22;81545;-62
2023/06/13 16:18:01;;;;;;;2.75;1.52;;;23.80;48.70;;;;;;7641423;22;80430;-60
2023/06/13 16:21:01;;;;;;;3.40;2.20;;;23.80;48.60;;;;;;7642400;22;80799;-59
2023/06/13 16:24:02;;;;;;;7.45;1.98;;;23.80;49.40;;;;;;7641814;22;80310;-59
2023/06/13 16:27:02;;;;;;;7.65;2.22;;;23.80;48.80;;;;;;7638644;22;80852;-58
2023/06/13 16:30:03;;;;;;;6.53;1.92;;;23.80;48.80;;;;;;7642985;22;80479;-59
2023/06/13 16:33:04;;;;;;;4.88;1.75;;;23.80;49.00;;;;;;7641848;22;81183;-60
2023/06/13 16:36:06;;;;;;;5.93;2.10;;;23.80;48.90;;;;;;7642812;22;80417;-59
2023/06/13 16:39:06;;;;;;;4.35;1.95;;;23.80;49.00;;;;;;7641615;22;80626;-58
2023/06/13 16:42:07;;;;;;;3.30;2.08;;;23.80;49.10;;;;;;7642444;22;80862;-59
2023/06/13 16:45:08;;;;;;;5.85;2.28;;;23.70;49.00;;;;;;7637850;22;80550;-57
2023/06/13 16:48:10;;;;;;;4.75;1.50;;;23.70;49.20;;;;;;7627391;22;81052;-57
2023/06/13 16:51:11;;;;;;;6.07;2.72;;;23.70;49.20;;;;;;7633616;22;80842;-61
2023/06/13 16:54:11;;;;;;;4.75;1.60;;;23.70;49.20;;;;;;7638766;22;80809;-58
2023/06/13 16:57:12;;;;;;;4.05;1.83;;;23.70;49.40;;;;;;7636376;22;79979;-58
2023/06/13 17:00:12;;;;;;;3.30;1.95;;;23.70;49.80;;;;;;7625507;22;81350;-59
2023/06/13 17:03:13;;;;;;;2.92;2.03;;;23.70;50.20;;;;;;7635307;22;81593;-55